Terminal Aerodrome Forecast
Issued by NWS

Current Version | Previous Version | Text Only | Print | Product List | Glossary On
Versions: 1 2 3 4 5 6 7 8 9 10 11 12 13 14 15 16 17 18
379
FTUS43 KBIS 291726
TAFDIK
TAF
KDIK 291726Z 2918/3018 32017G26KT P6SM SCT040 BKN060
     FM292000 32017G26KT P6SM FEW050 SCT090
     FM300300 33005KT P6SM SKC
     FM301700 33013KT P6SM SKC=

USA.gov is the U.S. government's official web portal to all federal, state and local government web resources and services.